Time;durP1;ratioP1;P1;durP2;ratioP2;P2;SDS_P1;SDS_P2;PMS_P1;PMS_P2;Temp;Humidity;BMP_temperature;BMP_pressure;BME280_temperature;BME280_humidity;BME280_pressure;Samples;Min_cycle;Max_cycle;Signal;HPM_P1;HPM_P2
2024/04/25 00:01:23;;;;;;;4.47;3.60;;;2.00;99.90;;;;;;5435390;26;20258;-62
2024/04/25 00:03:48;;;;;;;4.23;3.40;;;1.90;99.90;;;;;;5459707;26;20532;-62
2024/04/25 00:06:14;;;;;;;5.60;4.10;;;1.90;99.90;;;;;;5460915;26;20228;-63
2024/04/25 00:08:40;;;;;;;7.00;3.67;;;1.90;99.90;;;;;;5473851;26;20279;-63
2024/04/25 00:11:05;;;;;;;5.43;3.80;;;1.90;99.90;;;;;;5440588;26;20235;-63
2024/04/25 00:13:31;;;;;;;5.20;3.40;;;1.90;99.90;;;;;;5452941;26;20789;-63
2024/04/25 00:15:57;;;;;;;6.33;4.13;;;1.90;99.90;;;;;;5466691;26;20270;-63
2024/04/25 00:18:23;;;;;;;8.03;4.10;;;1.90;99.90;;;;;;5456331;26;20311;-63
2024/04/25 00:20:49;;;;;;;4.30;3.23;;;1.90;99.90;;;;;;5460850;26;20452;-64
2024/04/25 00:23:15;;;;;;;3.83;3.40;;;1.90;99.90;;;;;;5462099;26;20423;-63
2024/04/25 00:25:40;;;;;;;5.63;4.00;;;1.90;99.90;;;;;;5459040;26;21297;-63
2024/04/25 00:28:06;;;;;;;4.27;3.53;;;1.90;99.90;;;;;;5463721;26;20344;-63
2024/04/25 00:30:32;;;;;;;4.17;3.77;;;1.90;99.90;;;;;;5438024;26;20242;-63
2024/04/25 00:32:58;;;;;;;4.43;3.53;;;1.90;99.90;;;;;;5461460;26;20274;-63
2024/04/25 00:35:24;;;;;;;5.20;4.00;;;1.90;99.90;;;;;;5426966;26;20254;-63
2024/04/25 00:37:50;;;;;;;6.83;3.57;;;1.90;99.90;;;;;;5462952;26;20519;-62
2024/04/25 00:40:15;;;;;;;7.20;3.80;;;1.90;99.90;;;;;;5461368;26;21165;-63
2024/04/25 00:42:41;;;;;;;4.90;3.60;;;1.90;99.90;;;;;;5456506;26;20231;-63
2024/04/25 00:45:07;;;;;;;4.83;3.40;;;1.90;99.90;;;;;;5463706;26;20227;-63
2024/04/25 00:47:34;;;;;;;5.53;3.70;;;1.90;99.90;;;;;;5463076;26;20635;-62
2024/04/25 00:50:00;;;;;;;4.77;3.97;;;2.00;99.90;;;;;;5459404;26;20317;-63
2024/04/25 00:52:26;;;;;;;4.70;3.53;;;2.00;99.90;;;;;;5465460;26;20800;-63
2024/04/25 00:54:52;;;;;;;7.13;4.37;;;2.00;99.90;;;;;;5475144;26;20463;-63
2024/04/25 00:57:21;;;;;;;4.20;3.63;;;2.00;99.90;;;;;;5451904;26;20453;-63
2024/04/25 00:59:49;;;;;;;3.63;3.33;;;2.00;99.90;;;;;;5457494;26;20291;-63
2024/04/25 01:02:17;;;;;;;7.97;4.67;;;2.00;99.90;;;;;;5436668;26;20749;-63
2024/04/25 01:04:45;;;;;;;6.17;4.33;;;2.00;99.90;;;;;;5457847;26;20457;-63
2024/04/25 01:07:11;;;;;;;5.30;3.83;;;2.00;99.90;;;;;;5432064;26;21029;-63
2024/04/25 01:09:38;;;;;;;5.00;4.10;;;2.00;99.90;;;;;;5446697;26;20461;-63
2024/04/25 01:12:04;;;;;;;4.80;4.10;;;2.00;99.90;;;;;;5454861;26;20449;-62
2024/04/25 01:14:31;;;;;;;7.47;4.67;;;2.00;99.90;;;;;;5475091;26;20496;-62
2024/04/25 01:16:56;;;;;;;5.93;4.07;;;2.00;99.90;;;;;;5465861;26;20512;-63
2024/04/25 01:19:22;;;;;;;7.70;4.97;;;2.00;99.90;;;;;;5464675;26;20452;-63
2024/04/25 01:21:48;;;;;;;7.83;4.63;;;2.00;99.90;;;;;;5457054;26;20228;-63
2024/04/25 01:24:27;;;;;;;6.10;4.03;;;2.00;99.90;;;;;;5463604;26;20222;-60
2024/04/25 01:26:54;;;;;;;6.57;4.17;;;2.00;99.90;;;;;;5458592;26;20457;-63
2024/04/25 01:29:20;;;;;;;6.60;4.97;;;1.90;99.90;;;;;;5453219;26;20862;-63
2024/04/25 01:31:46;;;;;;;5.80;4.30;;;2.00;99.90;;;;;;5457202;26;20515;-63
2024/04/25 01:34:17;;;;;;;8.57;4.53;;;2.00;99.90;;;;;;5463052;26;21171;-63
2024/04/25 01:36:42;;;;;;;7.33;4.80;;;2.00;99.90;;;;;;5459419;26;20464;-63
2024/04/25 01:39:13;;;;;;;4.97;4.07;;;2.00;99.90;;;;;;5455929;26;20509;-63
2024/04/25 01:41:38;;;;;;;7.47;4.90;;;2.00;99.90;;;;;;5435261;26;20922;-63
2024/04/25 01:44:04;;;;;;;7.60;4.40;;;2.00;99.90;;;;;;5465209;26;20579;-63
2024/04/25 01:46:30;;;;;;;5.70;4.40;;;2.00;99.90;;;;;;5465547;26;20226;-63
2024/04/25 01:48:57;;;;;;;7.67;5.27;;;2.00;99.90;;;;;;5461936;26;20442;-63
2024/04/25 01:51:22;;;;;;;10.97;4.87;;;2.00;99.90;;;;;;5459966;26;20815;-63
2024/04/25 01:53:48;;;;;;;5.93;4.70;;;2.00;99.90;;;;;;5436557;26;20469;-63
2024/04/25 01:56:14;;;;;;;6.50;4.50;;;2.10;99.90;;;;;;5428838;26;20231;-63
2024/04/25 01:58:40;;;;;;;7.27;5.60;;;2.10;99.90;;;;;;5453641;26;20231;-63
2024/04/25 02:01:06;;;;;;;7.33;5.20;;;2.10;99.90;;;;;;5463155;26;20453;-63
2024/04/25 02:03:31;;;;;;;6.07;4.37;;;2.10;99.90;;;;;;5458487;26;20440;-63
2024/04/25 02:05:57;;;;;;;7.13;5.27;;;2.10;99.90;;;;;;5451436;26;20355;-63
2024/04/25 02:08:23;;;;;;;5.90;4.60;;;2.10;99.90;;;;;;5456350;26;20731;-63
2024/04/25 02:10:50;;;;;;;5.80;4.20;;;2.10;99.90;;;;;;5466467;26;20792;-63
2024/04/25 02:13:16;;;;;;;5.83;4.47;;;2.10;99.90;;;;;;5460329;26;21094;-62
2024/04/25 02:15:42;;;;;;;7.33;5.50;;;2.10;99.90;;;;;;5456687;26;20505;-64
2024/04/25 02:18:08;;;;;;;17.70;5.40;;;2.10;99.90;;;;;;5432356;26;20858;-63
2024/04/25 02:26:06;;;;;;;11.33;4.87;;;2.10;99.90;;;;;;5451764;26;20583;-63
2024/04/25 02:28:32;;;;;;;8.20;5.17;;;2.10;99.90;;;;;;5420865;26;20499;-63
2024/04/25 02:30:58;;;;;;;8.70;5.43;;;2.10;99.90;;;;;;5466583;26;20461;-63
2024/04/25 02:33:25;;;;;;;10.60;4.97;;;2.10;99.90;;;;;;5458979;26;20270;-63
2024/04/25 02:35:50;;;;;;;7.33;5.20;;;2.10;99.90;;;;;;5456694;26;20449;-63
2024/04/25 02:38:16;;;;;;;6.87;5.50;;;2.10;99.90;;;;;;5466073;26;20459;-63
2024/04/25 02:40:43;;;;;;;11.63;6.20;;;2.10;99.90;;;;;;5450787;26;20303;-63
2024/04/25 02:43:08;;;;;;;8.70;6.13;;;2.10;99.90;;;;;;5463168;26;20897;-63
2024/04/25 02:45:34;;;;;;;9.60;7.20;;;2.10;99.90;;;;;;5456473;26;20471;-63
2024/04/25 02:47:59;;;;;;;9.50;5.93;;;2.10;99.90;;;;;;5462525;26;20261;-63
2024/04/25 02:50:25;;;;;;;12.47;6.53;;;2.10;99.90;;;;;;5420087;26;22158;-63
2024/04/25 02:52:51;;;;;;;9.87;5.40;;;2.10;99.90;;;;;;5446565;26;20332;-62
2024/04/25 02:55:16;;;;;;;12.43;5.37;;;2.10;99.90;;;;;;5459857;26;20294;-63
2024/04/25 02:57:42;;;;;;;10.07;6.00;;;2.10;99.90;;;;;;5456186;26;20235;-62
2024/04/25 03:00:08;;;;;;;10.47;6.07;;;2.20;99.90;;;;;;5438789;26;20222;-62
2024/04/25 03:02:34;;;;;;;10.67;5.50;;;2.20;99.90;;;;;;5461366;26;20250;-62
2024/04/25 03:05:00;;;;;;;9.47;5.97;;;2.20;99.90;;;;;;5470859;26;20575;-63
2024/04/25 03:07:25;;;;;;;6.83;5.37;;;2.10;99.90;;;;;;5453446;26;20548;-63
2024/04/25 03:09:51;;;;;;;8.50;5.80;;;2.20;99.90;;;;;;5464340;26;20223;-62
2024/04/25 03:12:16;;;;;;;9.07;6.13;;;2.20;99.90;;;;;;5456165;26;20243;-61
2024/04/25 03:14:42;;;;;;;8.70;6.10;;;2.20;99.90;;;;;;5452573;26;20224;-62
2024/04/25 03:17:07;;;;;;;9.97;5.47;;;2.20;99.90;;;;;;5410861;21;20752;-58
2024/04/25 03:19:33;;;;;;;8.87;6.10;;;2.20;99.90;;;;;;5363868;26;20238;-58
2024/04/25 03:21:59;;;;;;;10.13;5.90;;;2.20;99.90;;;;;;5364733;26;20229;-58
2024/04/25 03:24:24;;;;;;;8.27;5.70;;;2.20;99.90;;;;;;5359663;26;20222;-58
2024/04/25 03:26:50;;;;;;;9.27;6.30;;;2.20;99.90;;;;;;5349287;26;20231;-59
2024/04/25 03:29:15;;;;;;;11.47;5.80;;;2.30;99.90;;;;;;5334391;26;20753;-57
2024/04/25 03:31:41;;;;;;;9.20;6.30;;;2.20;99.90;;;;;;5335805;26;20219;-59
2024/04/25 03:34:07;;;;;;;8.30;6.20;;;2.30;99.90;;;;;;5327044;26;20234;-58
2024/04/25 03:36:32;;;;;;;9.07;5.30;;;2.30;99.90;;;;;;5328415;26;20235;-58
2024/04/25 03:38:58;;;;;;;9.23;6.27;;;2.20;99.90;;;;;;5340150;26;20660;-59
2024/04/25 03:41:23;;;;;;;7.30;5.77;;;2.20;99.90;;;;;;5336493;26;20273;-59
2024/04/25 03:43:49;;;;;;;7.20;5.60;;;2.20;99.90;;;;;;5337958;26;20235;-58
2024/04/25 03:46:14;;;;;;;7.63;5.87;;;2.30;99.90;;;;;;5336803;26;20285;-59
2024/04/25 03:48:40;;;;;;;8.10;5.83;;;2.20;99.90;;;;;;5338347;26;20304;-59
2024/04/25 03:51:06;;;;;;;7.67;5.33;;;2.20;99.90;;;;;;5338150;26;20281;-58
2024/04/25 03:53:31;;;;;;;6.97;5.67;;;2.20;99.90;;;;;;5340837;26;20235;-59
2024/04/25 03:55:57;;;;;;;7.43;5.20;;;2.30;99.90;;;;;;5338333;26;20229;-59
2024/04/25 03:58:23;;;;;;;8.10;6.50;;;2.20;99.90;;;;;;5331516;26;20719;-59
2024/04/25 04:00:48;;;;;;;10.57;6.50;;;2.30;99.90;;;;;;5335209;26;20242;-57
2024/04/25 04:03:14;;;;;;;9.07;5.80;;;2.30;99.90;;;;;;5335744;26;20231;-59
2024/04/25 04:05:40;;;;;;;10.37;6.40;;;2.30;99.90;;;;;;5328529;26;20269;-58
2024/04/25 04:08:06;;;;;;;12.03;6.10;;;2.30;99.90;;;;;;5322052;26;20799;-59
2024/04/25 04:10:31;;;;;;;7.90;5.60;;;2.30;99.90;;;;;;5340812;26;20230;-61
2024/04/25 04:12:57;;;;;;;12.40;7.00;;;2.30;99.90;;;;;;5332329;26;20788;-61
2024/04/25 04:15:22;;;;;;;11.17;6.83;;;2.40;99.90;;;;;;5331553;26;20360;-59
2024/04/25 04:17:48;;;;;;;10.17;6.43;;;2.30;99.90;;;;;;5328100;26;20238;-59
2024/04/25 04:20:14;;;;;;;10.00;6.03;;;2.30;99.90;;;;;;5332145;26;20765;-57
2024/04/25 04:22:39;;;;;;;6.80;5.70;;;2.40;99.90;;;;;;5333931;26;20339;-57
2024/04/25 04:25:05;;;;;;;11.43;5.90;;;2.40;99.90;;;;;;5341086;26;20326;-57
2024/04/25 04:27:31;;;;;;;10.90;6.10;;;2.40;99.90;;;;;;5345166;26;20310;-57
2024/04/25 04:29:56;;;;;;;9.23;5.57;;;2.40;99.90;;;;;;5335367;26;20340;-57
2024/04/25 04:32:22;;;;;;;10.70;6.17;;;2.40;99.90;;;;;;5338908;26;20781;-57
2024/04/25 04:34:48;;;;;;;10.67;6.67;;;2.40;99.90;;;;;;5335203;26;20340;-57
2024/04/25 04:37:13;;;;;;;9.30;5.90;;;2.40;99.90;;;;;;5325984;26;20645;-58
2024/04/25 04:39:39;;;;;;;12.03;5.83;;;2.40;99.90;;;;;;5346220;26;20444;-57
2024/04/25 04:42:05;;;;;;;9.30;5.93;;;2.40;99.90;;;;;;5338382;26;20262;-57
2024/04/25 04:44:30;;;;;;;8.93;6.13;;;2.40;99.90;;;;;;5317971;26;20730;-58
2024/04/25 04:46:56;;;;;;;6.77;5.70;;;2.40;99.90;;;;;;5336579;26;20743;-58
2024/04/25 04:49:22;;;;;;;10.03;6.07;;;2.40;99.90;;;;;;5326999;26;20238;-59
2024/04/25 04:51:47;;;;;;;10.70;6.67;;;2.40;99.90;;;;;;5339211;26;20242;-57
2024/04/25 04:54:13;;;;;;;11.87;6.70;;;2.40;99.90;;;;;;5333869;26;20230;-58
2024/04/25 04:56:39;;;;;;;10.13;5.70;;;2.40;99.90;;;;;;5325149;26;20231;-59
2024/04/25 04:59:05;;;;;;;9.73;5.87;;;2.40;99.90;;;;;;5340540;26;20222;-56
2024/04/25 05:01:30;;;;;;;9.37;5.90;;;2.50;99.90;;;;;;5330009;26;21125;-57
2024/04/25 05:03:56;;;;;;;11.53;6.27;;;2.50;99.90;;;;;;5334117;26;20235;-56
2024/04/25 05:06:22;;;;;;;8.23;5.83;;;2.50;99.90;;;;;;5331150;26;20344;-56
2024/04/25 05:08:47;;;;;;;10.33;6.83;;;2.50;99.90;;;;;;5336087;26;20273;-56
2024/04/25 05:11:13;;;;;;;12.93;5.97;;;2.40;99.90;;;;;;5337236;26;20282;-57
2024/04/25 05:13:39;;;;;;;13.10;7.20;;;2.50;99.90;;;;;;5336641;26;20230;-56
2024/04/25 05:16:05;;;;;;;8.03;5.80;;;2.50;99.90;;;;;;5331744;26;20959;-57
2024/04/25 05:18:31;;;;;;;8.67;6.17;;;2.50;99.90;;;;;;5320860;26;20522;-58
2024/04/25 05:20:56;;;;;;;9.40;6.70;;;2.50;99.90;;;;;;5346243;26;20854;-56
2024/04/25 05:23:22;;;;;;;10.97;5.90;;;2.60;99.90;;;;;;5332221;26;21077;-56
2024/04/25 05:25:49;;;;;;;8.03;5.90;;;2.60;99.90;;;;;;5331890;26;20231;-56
2024/04/25 05:28:15;;;;;;;9.03;6.00;;;2.60;99.90;;;;;;5336712;26;20920;-58
2024/04/25 05:30:41;;;;;;;12.97;6.53;;;2.60;99.90;;;;;;5335504;26;20465;-56
2024/04/25 05:33:07;;;;;;;9.30;6.27;;;2.60;99.90;;;;;;5331333;26;20282;-58
2024/04/25 05:35:34;;;;;;;12.80;6.20;;;2.60;99.90;;;;;;5327207;26;20235;-56
2024/04/25 05:38:00;;;;;;;9.60;6.17;;;2.60;99.90;;;;;;5332842;26;20460;-58
2024/04/25 05:40:26;;;;;;;9.60;5.60;;;2.60;99.90;;;;;;5333458;26;20465;-57
2024/04/25 05:42:51;;;;;;;9.60;5.97;;;2.70;99.90;;;;;;5337768;26;20812;-57
2024/04/25 05:45:17;;;;;;;13.70;6.70;;;2.70;99.90;;;;;;5332173;26;20293;-55
2024/04/25 05:47:43;;;;;;;10.77;6.30;;;2.70;99.90;;;;;;5336104;26;20351;-57
2024/04/25 05:50:09;;;;;;;8.90;6.23;;;2.70;99.90;;;;;;5333114;26;21007;-57
2024/04/25 05:52:34;;;;;;;6.50;5.70;;;2.70;99.90;;;;;;5322841;26;20286;-58
2024/04/25 05:55:00;;;;;;;12.43;6.27;;;2.80;99.90;;;;;;5333685;26;20234;-58
2024/04/25 05:57:26;;;;;;;11.27;6.30;;;2.80;99.90;;;;;;5333393;26;20313;-58
2024/04/25 05:59:51;;;;;;;11.23;6.57;;;2.80;99.90;;;;;;5334085;26;20457;-58
2024/04/25 06:02:17;;;;;;;11.47;6.43;;;2.90;99.90;;;;;;5332269;26;20238;-56
2024/04/25 06:04:43;;;;;;;8.00;5.40;;;2.90;99.90;;;;;;5334991;26;20274;-57
2024/04/25 06:07:08;;;;;;;14.13;6.00;;;3.00;99.90;;;;;;5341990;26;20246;-60
2024/04/25 06:09:34;;;;;;;10.40;6.43;;;3.00;99.90;;;;;;5331161;26;20669;-57
2024/04/25 06:11:59;;;;;;;14.67;6.67;;;3.00;99.90;;;;;;5338578;26;20223;-56
2024/04/25 06:14:25;;;;;;;8.57;6.20;;;3.10;99.90;;;;;;5337319;26;20230;-56
2024/04/25 06:16:51;;;;;;;11.47;6.50;;;3.10;99.90;;;;;;5333726;26;20234;-56
2024/04/25 06:19:16;;;;;;;13.83;6.00;;;3.10;99.90;;;;;;5329028;26;20314;-57
2024/04/25 06:21:42;;;;;;;6.97;5.40;;;3.10;99.90;;;;;;5331159;26;20286;-58
2024/04/25 06:24:08;;;;;;;7.90;6.07;;;3.00;99.90;;;;;;5339212;26;20231;-55
2024/04/25 06:26:34;;;;;;;11.27;6.17;;;3.00;99.90;;;;;;5335820;26;20231;-59
2024/04/25 06:29:00;;;;;;;7.20;5.90;;;3.00;99.90;;;;;;5332587;26;20568;-57
2024/04/25 06:31:25;;;;;;;13.60;6.77;;;3.00;99.90;;;;;;5333934;26;20277;-57
2024/04/25 06:33:59;;;;;;;12.93;6.73;;;3.10;99.90;;;;;;5337857;26;20475;-58
2024/04/25 06:36:25;;;;;;;7.17;5.23;;;3.10;99.90;;;;;;5327805;26;20277;-57
2024/04/25 06:38:50;;;;;;;9.73;5.70;;;3.20;99.90;;;;;;5327608;26;20514;-57
2024/04/25 06:41:16;;;;;;;13.00;4.83;;;3.20;99.90;;;;;;5329728;26;20473;-54
2024/04/25 06:43:41;;;;;;;9.13;5.90;;;3.20;99.90;;;;;;5311505;26;20780;-56
2024/04/25 06:46:07;;;;;;;9.87;5.97;;;3.30;99.90;;;;;;5332120;26;20235;-58
2024/04/25 06:48:33;;;;;;;10.00;5.97;;;3.30;99.90;;;;;;5338578;26;20230;-58
2024/04/25 06:51:02;;;;;;;7.67;5.07;;;3.40;99.90;;;;;;5335877;26;20909;-58
2024/04/25 06:53:28;;;;;;;8.40;5.57;;;3.50;99.90;;;;;;5331298;26;20465;-57
2024/04/25 06:55:54;;;;;;;7.33;4.83;;;3.50;99.90;;;;;;5336759;26;20927;-59
2024/04/25 06:58:20;;;;;;;8.50;5.13;;;3.60;99.90;;;;;;5332488;26;20247;-57
2024/04/25 07:00:45;;;;;;;10.63;5.43;;;3.70;99.90;;;;;;5328819;26;20525;-58
2024/04/25 07:03:13;;;;;;;9.00;5.27;;;3.70;99.90;;;;;;5326437;26;20224;-58
2024/04/25 07:05:39;;;;;;;5.17;4.47;;;3.80;99.90;;;;;;5326409;26;20269;-55
2024/04/25 07:08:05;;;;;;;10.50;5.20;;;3.80;99.90;;;;;;5329313;26;20461;-55
2024/04/25 07:10:31;;;;;;;10.30;4.60;;;3.90;99.90;;;;;;5334652;26;20235;-57
2024/04/25 07:12:56;;;;;;;8.40;4.60;;;3.90;99.90;;;;;;5336252;26;20967;-58
2024/04/25 07:15:26;;;;;;;7.90;5.30;;;4.00;99.90;;;;;;5332079;26;20234;-59
2024/04/25 07:17:52;;;;;;;8.70;5.73;;;4.00;99.90;;;;;;5341385;26;20274;-58
2024/04/25 07:20:18;;;;;;;9.00;4.60;;;4.10;99.90;;;;;;5336525;26;20454;-56
2024/04/25 07:22:44;;;;;;;8.97;5.13;;;4.10;99.90;;;;;;5335289;26;20905;-59
2024/04/25 07:25:12;;;;;;;6.57;4.73;;;4.20;99.90;;;;;;5330885;26;20276;-58
2024/04/25 07:27:39;;;;;;;6.23;4.87;;;4.30;99.90;;;;;;5330430;26;20246;-58
2024/04/25 07:30:05;;;;;;;6.10;4.63;;;4.30;99.90;;;;;;5330944;26;20461;-58
2024/04/25 07:32:31;;;;;;;8.37;4.37;;;4.40;99.90;;;;;;5334620;26;20814;-58
2024/04/25 07:34:57;;;;;;;9.50;4.73;;;4.40;98.20;;;;;;5332328;26;20568;-59
2024/04/25 07:37:25;;;;;;;7.13;4.87;;;4.40;95.70;;;;;;5329395;26;20239;-58
2024/04/25 07:39:51;;;;;;;10.43;4.80;;;4.50;97.70;;;;;;5329993;26;20234;-57
2024/04/25 07:42:17;;;;;;;9.30;4.30;;;4.50;96.30;;;;;;5328325;26;20458;-58
2024/04/25 07:44:42;;;;;;;7.47;4.40;;;4.50;97.10;;;;;;5327068;26;20473;-58
2024/04/25 07:47:08;;;;;;;8.27;5.00;;;4.60;99.10;;;;;;5326879;26;20227;-57
2024/04/25 07:49:34;;;;;;;8.80;4.60;;;4.60;93.60;;;;;;5331276;26;20332;-58
2024/04/25 07:52:00;;;;;;;5.80;4.00;;;4.60;94.60;;;;;;5331685;26;20874;-57
2024/04/25 07:54:25;;;;;;;5.23;3.97;;;4.60;94.20;;;;;;5334682;26;20693;-58
2024/04/25 07:56:51;;;;;;;9.77;4.40;;;4.70;92.20;;;;;;5310900;26;20261;-58
2024/04/25 07:59:16;;;;;;;5.77;4.27;;;4.70;94.90;;;;;;5328612;26;20231;-57
2024/04/25 08:01:42;;;;;;;5.93;4.40;;;4.80;95.30;;;;;;5327463;26;20770;-60
2024/04/25 08:04:10;;;;;;;7.33;4.47;;;4.90;94.70;;;;;;5327283;26;20286;-59
2024/04/25 08:06:36;;;;;;;10.43;4.63;;;5.00;93.90;;;;;;5324632;26;20242;-59
2024/04/25 08:09:02;;;;;;;6.60;4.60;;;5.00;82.90;;;;;;5322064;26;20518;-58
2024/04/25 08:11:28;;;;;;;6.40;4.70;;;5.10;88.90;;;;;;5333364;26;20457;-58
2024/04/25 08:13:54;;;;;;;7.20;4.07;;;5.10;91.40;;;;;;5327988;26;20516;-58
2024/04/25 08:16:19;;;;;;;5.63;4.00;;;5.30;85.20;;;;;;5332642;26;20281;-57
2024/04/25 08:18:45;;;;;;;7.30;4.27;;;5.30;82.40;;;;;;5335401;26;20231;-57
2024/04/25 08:21:10;;;;;;;6.37;4.63;;;5.30;81.90;;;;;;5334779;26;20228;-58
2024/04/25 08:23:36;;;;;;;6.30;3.90;;;5.40;81.30;;;;;;5399418;26;20231;-59
2024/04/25 08:26:04;;;;;;;6.10;3.87;;;5.40;77.60;;;;;;5336358;26;20264;-58
2024/04/25 08:28:29;;;;;;;7.13;3.40;;;5.20;73.10;;;;;;5334879;26;20255;-58
2024/04/25 08:30:55;;;;;;;6.80;3.77;;;5.10;73.30;;;;;;5325484;26;22942;-58
2024/04/25 08:33:20;;;;;;;8.37;3.80;;;5.00;72.90;;;;;;5337710;26;20344;-57
2024/04/25 08:35:46;;;;;;;3.47;2.93;;;5.00;72.80;;;;;;5335259;26;20285;-60
2024/04/25 08:38:11;;;;;;;13.23;3.73;;;5.00;72.60;;;;;;5316540;26;20251;-58
2024/04/25 08:40:37;;;;;;;7.73;3.57;;;4.90;70.80;;;;;;5341276;26;20273;-57
2024/04/25 08:43:03;;;;;;;5.97;3.13;;;4.90;71.30;;;;;;5332701;26;20307;-59
2024/04/25 08:45:32;;;;;;;6.83;3.90;;;4.90;71.50;;;;;;5331087;26;20409;-59
2024/04/25 08:47:58;;;;;;;6.33;3.50;;;5.00;72.70;;;;;;5329889;26;20239;-59
2024/04/25 08:50:28;;;;;;;6.83;3.90;;;5.00;71.90;;;;;;5341648;26;20514;-60
2024/04/25 08:52:55;;;;;;;6.83;3.47;;;5.20;73.30;;;;;;5336185;26;20473;-58
2024/04/25 08:55:21;;;;;;;5.57;3.20;;;5.40;72.20;;;;;;5336352;26;20588;-59
2024/04/25 08:57:47;;;;;;;8.17;3.57;;;5.60;72.70;;;;;;5331420;26;20885;-59
2024/04/25 09:00:13;;;;;;;9.77;4.20;;;5.60;70.40;;;;;;5336260;26;20466;-60
2024/04/25 09:02:40;;;;;;;6.90;3.20;;;5.60;67.30;;;;;;5332672;26;20266;-58
2024/04/25 09:05:11;;;;;;;4.97;3.20;;;5.50;66.30;;;;;;5332579;26;20609;-59
2024/04/25 09:07:40;;;;;;;7.03;3.23;;;5.40;66.30;;;;;;5337717;26;20505;-59
2024/04/25 09:10:06;;;;;;;7.13;3.40;;;5.30;66.70;;;;;;5333466;26;20473;-59
2024/04/25 09:12:31;;;;;;;8.90;3.53;;;5.30;67.40;;;;;;5315761;26;20511;-59
2024/04/25 09:14:59;;;;;;;11.40;3.60;;;5.20;65.40;;;;;;5333273;26;20801;-57
2024/04/25 09:17:25;;;;;;;3.97;3.33;;;5.20;66.60;;;;;;5328531;26;20242;-59
2024/04/25 09:19:51;;;;;;;5.77;2.97;;;5.10;67.00;;;;;;5337751;26;20509;-60
2024/04/25 09:22:18;;;;;;;5.27;3.63;;;5.10;67.30;;;;;;5326193;26;21028;-58
2024/04/25 09:24:47;;;;;;;6.03;3.27;;;5.00;67.60;;;;;;5337115;26;20624;-59
2024/04/25 09:27:12;;;;;;;9.07;4.00;;;5.00;67.80;;;;;;5387523;21;20544;-63
2024/04/25 09:29:38;;;;;;;7.17;4.60;;;5.10;68.70;;;;;;5395976;26;20454;-62
2024/04/25 09:32:05;;;;;;;3.10;2.80;;;5.20;68.90;;;;;;5401695;26;20268;-63
2024/04/25 09:34:30;;;;;;;6.07;3.83;;;5.30;67.70;;;;;;5391842;26;20236;-63
2024/04/25 09:36:56;;;;;;;4.90;3.23;;;5.40;66.20;;;;;;5385502;26;20462;-63
2024/04/25 09:39:21;;;;;;;3.10;2.80;;;5.40;63.50;;;;;;5401176;26;20229;-63
2024/04/25 09:41:48;;;;;;;5.87;3.23;;;5.50;63.10;;;;;;5402954;26;20241;-63
2024/04/25 09:44:14;;;;;;;9.57;3.33;;;5.60;62.50;;;;;;5400918;26;20855;-63
2024/04/25 09:46:50;;;;;;;6.67;3.13;;;5.60;60.00;;;;;;5406614;26;20454;-63
2024/04/25 09:49:20;;;;;;;11.20;3.27;;;5.70;59.70;;;;;;5406159;26;21047;-63
2024/04/25 09:51:51;;;;;;;4.93;3.00;;;5.80;59.30;;;;;;5396868;26;20526;-63
2024/04/25 09:54:26;;;;;;;6.13;3.37;;;5.90;60.20;;;;;;5402251;26;20462;-63
2024/04/25 09:56:57;;;;;;;5.63;3.17;;;6.00;59.50;;;;;;5399517;26;21063;-60
2024/04/25 09:59:48;;;;;;;8.53;3.30;;;6.00;58.70;;;;;;5401072;26;20458;-61
2024/04/25 10:02:21;;;;;;;4.97;3.47;;;5.90;57.80;;;;;;5397036;26;20545;-62
2024/04/25 10:04:46;;;;;;;8.37;2.87;;;5.90;57.30;;;;;;5397723;26;21074;-62
2024/04/25 10:07:14;;;;;;;6.43;3.20;;;5.90;56.60;;;;;;5378903;26;20455;-63
2024/04/25 10:09:41;;;;;;;4.67;3.40;;;5.80;56.30;;;;;;5402089;26;20317;-63
2024/04/25 10:12:07;;;;;;;6.00;3.40;;;5.80;57.10;;;;;;5402952;26;20470;-63
2024/04/25 10:14:33;;;;;;;8.10;3.30;;;5.80;57.10;;;;;;5404266;26;20446;-63
2024/04/25 10:16:59;;;;;;;4.77;3.10;;;5.70;57.70;;;;;;5373010;26;20458;-63
2024/04/25 10:19:36;;;;;;;6.83;3.53;;;5.80;58.00;;;;;;5401921;26;20329;-63
2024/04/25 10:22:01;;;;;;;5.30;3.30;;;5.90;58.40;;;;;;5400283;26;20447;-63
2024/04/25 10:24:27;;;;;;;5.03;3.07;;;6.10;58.60;;;;;;5390867;26;20507;-63
2024/04/25 10:26:53;;;;;;;7.20;3.17;;;6.40;59.60;;;;;;5395138;26;20230;-63
2024/04/25 10:29:30;;;;;;;4.17;2.67;;;6.70;59.10;;;;;;5399136;26;20258;-62
2024/04/25 10:31:56;;;;;;;4.30;3.27;;;6.80;57.10;;;;;;5393986;26;20940;-64
2024/04/25 10:34:21;;;;;;;4.63;2.93;;;6.80;56.50;;;;;;5402788;26;20517;-62
2024/04/25 10:36:47;;;;;;;4.30;2.63;;;6.70;55.90;;;;;;5401523;26;20293;-62
2024/04/25 10:39:18;;;;;;;4.53;2.93;;;6.70;54.50;;;;;;5397601;26;20277;-63
2024/04/25 10:41:44;;;;;;;2.83;2.53;;;6.60;53.20;;;;;;5403456;26;20260;-62
2024/04/25 10:44:09;;;;;;;4.67;2.83;;;6.40;52.60;;;;;;5402149;26;20780;-63
2024/04/25 10:46:36;;;;;;;6.00;2.60;;;6.30;53.10;;;;;;5398396;26;20272;-63
2024/04/25 10:49:04;;;;;;;5.10;3.20;;;6.30;53.20;;;;;;5406969;26;20217;-63
2024/04/25 10:51:30;;;;;;;8.53;3.43;;;6.20;54.90;;;;;;5361167;26;21028;-62
2024/04/25 10:53:56;;;;;;;20.87;9.47;;;6.20;56.90;;;;;;5394645;26;20803;-64
2024/04/25 10:56:22;;;;;;;8.40;4.60;;;6.20;58.60;;;;;;5388794;26;20518;-64
2024/04/25 10:58:57;;;;;;;6.63;4.73;;;6.20;59.60;;;;;;5400438;26;20775;-62
2024/04/25 11:01:28;;;;;;;5.50;3.37;;;6.30;60.10;;;;;;5404623;26;20506;-60
2024/04/25 11:04:01;;;;;;;7.07;3.10;;;6.40;60.50;;;;;;5407726;26;20514;-60
2024/04/25 11:06:29;;;;;;;3.40;3.10;;;6.70;61.20;;;;;;5400811;26;20560;-59
2024/04/25 11:08:55;;;;;;;5.80;3.20;;;6.90;61.40;;;;;;5396453;26;20605;-61
2024/04/25 11:11:21;;;;;;;3.23;2.67;;;7.10;60.40;;;;;;5400463;26;20522;-62
2024/04/25 11:13:48;;;;;;;3.73;3.00;;;7.20;60.10;;;;;;5402409;26;20280;-63
2024/04/25 11:16:14;;;;;;;5.17;2.90;;;7.20;60.10;;;;;;5404507;26;20525;-64
2024/04/25 11:18:40;;;;;;;3.80;3.00;;;7.20;59.70;;;;;;5402443;26;20459;-63
2024/04/25 11:21:07;;;;;;;6.60;3.30;;;7.20;59.10;;;;;;5369635;26;20530;-63
2024/04/25 11:23:33;;;;;;;7.60;3.10;;;7.10;57.40;;;;;;5371315;26;20244;-63
2024/04/25 11:26:02;;;;;;;4.07;3.03;;;7.00;55.80;;;;;;5373964;26;20504;-63
2024/04/25 11:28:28;;;;;;;7.43;3.50;;;6.90;54.70;;;;;;5403296;26;20561;-63
2024/04/25 11:30:54;;;;;;;5.63;3.03;;;6.80;54.40;;;;;;5402528;26;20511;-64
2024/04/25 11:33:22;;;;;;;4.27;2.80;;;6.70;54.90;;;;;;5401817;26;20526;-63
2024/04/25 11:35:47;;;;;;;3.13;2.80;;;6.60;55.00;;;;;;5401140;26;20275;-64
2024/04/25 11:38:15;;;;;;;6.57;2.67;;;6.50;55.20;;;;;;5404178;26;20474;-64
2024/04/25 11:40:44;;;;;;;7.20;3.20;;;6.40;55.80;;;;;;5401198;26;20648;-64
2024/04/25 11:43:14;;;;;;;4.07;3.03;;;6.40;56.90;;;;;;5402417;26;20510;-64
2024/04/25 11:45:43;;;;;;;7.77;3.07;;;6.40;57.50;;;;;;5405146;26;20511;-63
2024/04/25 11:48:10;;;;;;;8.13;3.00;;;6.50;57.80;;;;;;5400978;26;20474;-63
2024/04/25 11:50:37;;;;;;;7.07;3.47;;;6.80;57.40;;;;;;5403182;26;20585;-63
2024/04/25 11:53:06;;;;;;;6.83;3.70;;;7.00;57.10;;;;;;5392634;26;20498;-63
2024/04/25 11:55:32;;;;;;;5.13;3.20;;;7.10;55.50;;;;;;5375054;26;20917;-63
2024/04/25 11:57:58;;;;;;;3.43;3.03;;;7.10;55.40;;;;;;5370530;26;20459;-63
2024/04/25 12:00:24;;;;;;;7.40;3.20;;;7.20;55.70;;;;;;5406356;26;20337;-63
2024/04/25 12:02:49;;;;;;;5.60;3.43;;;7.20;56.10;;;;;;5410031;26;20679;-63
2024/04/25 12:05:15;;;;;;;4.60;2.67;;;7.20;55.90;;;;;;5410644;26;20224;-64
2024/04/25 12:07:42;;;;;;;8.43;3.03;;;7.10;54.40;;;;;;5396951;26;20348;-63
2024/04/25 12:10:08;;;;;;;5.20;3.40;;;7.10;55.40;;;;;;5375274;26;20454;-63
2024/04/25 12:12:33;;;;;;;3.50;2.70;;;7.10;55.90;;;;;;5403162;26;20507;-63
2024/04/25 12:14:59;;;;;;;10.33;3.07;;;7.10;55.30;;;;;;5403955;26;20268;-63
2024/04/25 12:17:26;;;;;;;4.30;2.77;;;7.10;55.70;;;;;;5405804;26;20259;-63
2024/04/25 12:19:51;;;;;;;4.87;3.03;;;7.10;54.30;;;;;;5408056;26;20518;-63
2024/04/25 12:22:17;;;;;;;5.93;2.90;;;7.00;53.20;;;;;;5403689;26;20806;-63
2024/04/25 12:24:43;;;;;;;5.90;2.77;;;7.00;54.60;;;;;;5402025;26;20233;-63
2024/04/25 12:27:09;;;;;;;5.10;3.00;;;6.90;55.10;;;;;;5367388;26;20267;-63
2024/04/25 12:29:34;;;;;;;3.60;2.70;;;6.90;54.60;;;;;;5402501;26;20229;-63
2024/04/25 12:32:03;;;;;;;3.33;2.83;;;6.90;55.50;;;;;;5401863;26;20280;-63
2024/04/25 12:34:28;;;;;;;4.33;2.83;;;6.90;55.20;;;;;;5373633;26;20259;-63
2024/04/25 12:36:54;;;;;;;4.13;3.13;;;7.00;55.90;;;;;;5406279;26;20464;-63
2024/04/25 12:39:20;;;;;;;5.30;3.50;;;7.00;56.30;;;;;;5400814;26;20713;-64
2024/04/25 12:41:45;;;;;;;5.60;2.63;;;7.10;56.50;;;;;;5369799;26;20228;-63
2024/04/25 12:44:11;;;;;;;6.17;3.00;;;7.30;56.60;;;;;;5406618;26;20237;-64
2024/04/25 12:46:36;;;;;;;6.13;3.10;;;7.40;56.20;;;;;;5401120;26;21057;-63
2024/04/25 12:49:02;;;;;;;4.87;2.70;;;7.60;56.40;;;;;;5379622;26;20267;-63
2024/04/25 12:51:28;;;;;;;2.73;2.40;;;7.90;55.80;;;;;;5405313;26;20236;-63
2024/04/25 12:53:53;;;;;;;4.93;2.80;;;8.50;54.10;;;;;;5401046;26;20226;-64
2024/04/25 12:56:19;;;;;;;3.33;2.40;;;9.10;52.20;;;;;;5402535;26;20236;-64